createdAt,value
2018-05-23T00:01:02.703Z,4.20
2018-05-23T00:03:30.206Z,5.10
2018-05-23T00:05:57.673Z,6.40
2018-05-23T00:08:25.163Z,5.00
2018-05-23T00:10:52.630Z,4.37
2018-05-23T00:13:20.171Z,5.47
2018-05-23T00:15:47.730Z,6.17
2018-05-23T00:18:15.210Z,4.27
2018-05-23T00:20:42.670Z,3.77
2018-05-23T00:23:10.154Z,5.30
2018-05-23T00:25:37.661Z,3.60
2018-05-23T00:28:05.328Z,4.40
2018-05-23T00:30:32.799Z,4.33
2018-05-23T00:33:00.346Z,3.97
2018-05-23T00:35:27.839Z,4.30
2018-05-23T00:37:55.342Z,3.90
2018-05-23T00:40:22.828Z,4.37
2018-05-23T00:42:50.378Z,5.03
2018-05-23T00:45:17.880Z,4.93
2018-05-23T00:47:45.390Z,4.20
2018-05-23T00:50:12.945Z,4.50
2018-05-23T00:52:40.418Z,3.60
2018-05-23T00:55:19.850Z,4.37
2018-05-23T00:57:47.315Z,5.23
2018-05-23T01:00:14.803Z,3.80
2018-05-23T01:02:42.270Z,3.90
2018-05-23T01:05:09.755Z,5.43
2018-05-23T01:07:37.242Z,4.00
2018-05-23T01:10:04.727Z,3.50
2018-05-23T01:12:32.254Z,2.97
2018-05-23T01:14:59.831Z,3.70
2018-05-23T01:17:27.378Z,4.10
2018-05-23T01:19:55.042Z,3.57
2018-05-23T01:22:22.502Z,3.90
2018-05-23T01:24:50.040Z,5.80
2018-05-23T01:27:17.523Z,3.00
2018-05-23T01:29:45.002Z,3.60
2018-05-23T01:32:12.534Z,3.93
2018-05-23T01:34:40.050Z,3.97
2018-05-23T01:37:07.543Z,3.23
2018-05-23T01:39:35.059Z,4.50
2018-05-23T01:42:02.555Z,4.43
2018-05-23T01:44:30.053Z,4.17
2018-05-23T01:46:57.597Z,4.67
2018-05-23T01:49:27.026Z,4.93
2018-05-23T01:51:54.487Z,3.93
2018-05-23T01:54:21.979Z,4.30
2018-05-23T01:56:49.439Z,4.97
2018-05-23T01:59:16.923Z,5.43
2018-05-23T02:01:44.436Z,5.23
2018-05-23T02:04:12.080Z,4.93
2018-05-23T02:06:39.608Z,4.63
2018-05-23T02:09:07.082Z,4.90
2018-05-23T02:11:34.570Z,7.17
2018-05-23T02:14:03.492Z,5.43
2018-05-23T02:16:30.985Z,7.07
2018-05-23T02:18:58.475Z,5.83
2018-05-23T02:21:25.984Z,6.27
2018-05-23T02:23:53.442Z,6.47
2018-05-23T02:26:20.994Z,6.60
2018-05-23T02:28:48.496Z,6.17
2018-05-23T02:31:16.016Z,5.33
2018-05-23T02:33:43.474Z,5.43
2018-05-23T02:36:10.964Z,5.53
2018-05-23T02:38:38.534Z,5.60
2018-05-23T02:41:06.151Z,6.57
2018-05-23T02:43:33.614Z,6.27
2018-05-23T02:46:01.147Z,6.97
2018-05-23T02:48:28.634Z,6.50
2018-05-23T02:50:56.123Z,6.23
2018-05-23T02:53:23.659Z,7.83
2018-05-23T02:55:51.231Z,8.20
2018-05-23T02:58:18.768Z,6.97
2018-05-23T03:00:46.255Z,7.13
2018-05-23T03:03:13.778Z,8.30
2018-05-23T03:05:41.239Z,7.60
2018-05-23T03:08:08.726Z,7.53
2018-05-23T03:10:36.203Z,7.23
2018-05-23T03:13:03.702Z,7.00
2018-05-23T03:15:31.177Z,6.83
2018-05-23T03:17:58.743Z,7.10
2018-05-23T03:20:26.286Z,7.37
2018-05-23T03:22:53.778Z,13.40
2018-05-23T03:25:21.243Z,5.70
2018-05-23T03:27:48.727Z,6.53
2018-05-23T03:30:16.219Z,6.60
2018-05-23T03:32:43.706Z,6.20
2018-05-23T03:35:11.248Z,5.97
2018-05-23T03:37:38.771Z,6.33
2018-05-23T03:40:06.235Z,7.23
2018-05-23T03:42:33.732Z,8.70
2018-05-23T03:45:01.285Z,7.57
2018-05-23T03:47:28.772Z,9.50
2018-05-23T03:49:56.295Z,7.70
2018-05-23T03:52:23.868Z,6.40
2018-05-23T03:54:51.337Z,6.53
2018-05-23T03:57:18.831Z,9.57
2018-05-23T03:59:58.206Z,7.63
2018-05-23T04:02:37.451Z,4.73
2018-05-23T04:05:16.870Z,5.03
2018-05-23T04:07:44.351Z,5.47
2018-05-23T04:10:11.814Z,6.00
2018-05-23T04:12:39.318Z,5.67
2018-05-23T04:15:06.807Z,5.13
2018-05-23T04:17:34.285Z,5.07
2018-05-23T04:20:01.831Z,7.13
2018-05-23T04:22:29.314Z,5.90
2018-05-23T04:24:56.902Z,8.87
2018-05-23T04:27:24.379Z,5.63
2018-05-23T04:29:51.871Z,7.77
2018-05-23T04:32:19.354Z,6.43
2018-05-23T04:34:46.818Z,7.10
2018-05-23T04:37:14.307Z,6.87
2018-05-23T04:39:41.775Z,6.97
2018-05-23T04:42:09.259Z,5.80
2018-05-23T04:44:36.751Z,6.33
2018-05-23T04:47:04.221Z,5.73
2018-05-23T04:49:31.747Z,5.50
2018-05-23T04:51:59.210Z,5.13
2018-05-23T04:54:26.699Z,4.87
2018-05-23T04:56:55.095Z,5.40
2018-05-23T04:59:22.580Z,4.60
2018-05-23T05:01:50.055Z,5.30
2018-05-23T05:04:17.603Z,5.00
2018-05-23T05:06:45.143Z,7.07
2018-05-23T05:09:12.631Z,6.90
2018-05-23T05:11:40.102Z,5.17
2018-05-23T05:14:07.603Z,7.03
2018-05-23T05:16:35.072Z,6.57
2018-05-23T05:19:02.587Z,7.40
2018-05-23T05:21:30.046Z,4.77
2018-05-23T05:23:57.534Z,8.63
2018-05-23T05:26:25.096Z,4.80
2018-05-23T05:28:52.691Z,5.37
2018-05-23T05:31:20.146Z,5.20
2018-05-23T05:33:47.640Z,6.83
2018-05-23T05:36:15.104Z,6.43
2018-05-23T05:38:42.673Z,5.27
2018-05-23T05:41:10.183Z,4.87
2018-05-23T05:43:37.683Z,5.47
2018-05-23T05:46:05.218Z,4.83
2018-05-23T05:48:32.754Z,5.30
2018-05-23T05:51:00.315Z,4.77
2018-05-23T05:53:27.882Z,6.67
2018-05-23T05:55:55.366Z,6.30
2018-05-23T05:58:22.830Z,4.60
2018-05-23T06:00:50.311Z,6.67
2018-05-23T06:03:17.779Z,4.37
2018-05-23T06:05:45.263Z,5.33
2018-05-23T06:08:12.731Z,4.80
2018-05-23T06:10:40.282Z,9.10
2018-05-23T06:13:07.847Z,6.47
2018-05-23T06:15:35.326Z,6.60
2018-05-23T06:18:02.782Z,5.20
2018-05-23T06:20:30.272Z,20.03
2018-05-23T06:22:57.755Z,5.77
2018-05-23T06:25:25.263Z,4.30
2018-05-23T06:27:52.795Z,5.95
2018-05-23T06:30:20.334Z,6.90
2018-05-23T06:32:47.782Z,5.55
2018-05-23T06:35:15.327Z,5.73
2018-05-23T06:37:42.834Z,4.60
2018-05-23T06:40:10.331Z,4.97
2018-05-23T06:42:37.828Z,3.95
2018-05-23T06:45:05.344Z,5.05
2018-05-23T06:47:32.858Z,7.90
2018-05-23T06:50:00.358Z,6.17
2018-05-23T06:52:27.846Z,3.97
2018-05-23T06:54:55.337Z,4.30
2018-05-23T06:57:22.821Z,5.30
2018-05-23T06:59:50.319Z,5.93
2018-05-23T07:02:17.806Z,8.57
2018-05-23T07:04:45.267Z,5.68
2018-05-23T07:07:12.839Z,4.62
2018-05-23T07:09:40.325Z,4.07
2018-05-23T07:12:07.816Z,5.20
2018-05-23T07:14:36.321Z,3.95
2018-05-23T07:17:03.806Z,4.23
2018-05-23T07:19:31.274Z,4.43
2018-05-23T07:21:58.823Z,6.17
2018-05-23T07:24:26.287Z,4.13
2018-05-23T07:26:53.774Z,5.62
2018-05-23T07:29:21.259Z,5.03
2018-05-23T07:31:48.788Z,4.45
2018-05-23T07:34:16.300Z,5.60
2018-05-23T07:36:43.806Z,4.32
2018-05-23T07:39:11.293Z,5.13
2018-05-23T07:41:38.810Z,5.40
2018-05-23T07:44:06.292Z,5.65
2018-05-23T07:46:33.779Z,4.70
2018-05-23T07:49:01.327Z,6.27
2018-05-23T07:51:28.902Z,5.12
2018-05-23T07:53:56.441Z,4.70
2018-05-23T07:56:23.955Z,5.68
2018-05-23T07:58:51.446Z,6.45
2018-05-23T08:01:18.919Z,4.12
2018-05-23T08:03:46.431Z,4.62
2018-05-23T08:06:13.908Z,6.10
2018-05-23T08:08:41.444Z,5.30
2018-05-23T08:11:08.911Z,5.30
2018-05-23T08:13:36.423Z,6.15
2018-05-23T08:16:03.995Z,5.05
2018-05-23T08:18:31.555Z,4.10
2018-05-23T08:20:59.042Z,5.12
2018-05-23T08:23:26.610Z,3.70
2018-05-23T08:25:54.090Z,4.40
2018-05-23T08:28:21.574Z,4.53
2018-05-23T08:30:49.037Z,4.97
2018-05-23T08:33:16.603Z,4.55
2018-05-23T08:35:44.099Z,4.62
2018-05-23T08:38:11.622Z,5.37
2018-05-23T08:40:39.117Z,3.95
2018-05-23T08:43:06.743Z,4.60
2018-05-23T08:45:34.230Z,4.80
2018-05-23T08:48:01.723Z,5.70
2018-05-23T08:50:29.215Z,4.25
2018-05-23T08:52:56.698Z,4.30
2018-05-23T08:55:24.175Z,4.07
2018-05-23T08:57:51.695Z,3.92
2018-05-23T09:00:19.188Z,4.32
2018-05-23T09:02:46.711Z,12.20
2018-05-23T09:05:14.187Z,4.70
2018-05-23T09:07:41.683Z,4.10
2018-05-23T09:10:09.186Z,4.78
2018-05-23T09:12:36.808Z,4.35
2018-05-23T09:15:04.164Z,4.93
2018-05-23T09:17:31.667Z,4.30
2018-05-23T09:19:59.159Z,4.62
2018-05-23T09:22:26.638Z,4.95
2018-05-23T09:24:54.135Z,4.82
2018-05-23T09:27:22.595Z,4.43
2018-05-23T09:29:50.169Z,4.75
2018-05-23T09:32:17.689Z,5.32
2018-05-23T09:34:45.222Z,4.95
2018-05-23T09:37:12.685Z,4.97
2018-05-23T09:39:40.234Z,5.32
2018-05-23T09:42:07.704Z,7.50
2018-05-23T09:44:35.209Z,6.87
2018-05-23T09:47:02.693Z,5.93
2018-05-23T09:49:30.184Z,5.22
2018-05-23T09:51:57.673Z,5.45
2018-05-23T09:54:25.198Z,5.82
2018-05-23T09:56:52.694Z,5.30
2018-05-23T09:59:20.236Z,6.15
2018-05-23T10:01:47.754Z,5.72
2018-05-23T10:04:15.268Z,6.47
2018-05-23T10:06:42.906Z,5.15
2018-05-23T10:09:10.427Z,6.10
2018-05-23T10:11:38.012Z,4.70
2018-05-23T10:14:05.566Z,5.72
2018-05-23T10:16:33.040Z,5.03
2018-05-23T10:19:00.546Z,6.32
2018-05-23T10:21:28.023Z,6.72
2018-05-23T10:23:55.525Z,8.30
2018-05-23T10:26:23.010Z,6.82
2018-05-23T10:28:50.493Z,4.60
2018-05-23T10:31:17.979Z,5.37
2018-05-23T10:33:45.456Z,5.40
2018-05-23T10:36:12.958Z,6.12
2018-05-23T10:38:40.508Z,5.45
2018-05-23T10:41:07.966Z,6.55
2018-05-23T10:43:35.429Z,5.18
2018-05-23T10:46:02.914Z,5.78
2018-05-23T10:48:30.459Z,6.45
2018-05-23T10:50:57.954Z,6.53
2018-05-23T10:53:29.400Z,7.05
2018-05-23T10:55:56.939Z,6.82
2018-05-23T10:58:24.691Z,5.15
2018-05-23T11:00:52.215Z,5.12
2018-05-23T11:03:19.734Z,5.68
2018-05-23T11:05:47.340Z,5.07
2018-05-23T11:08:17.251Z,5.85
2018-05-23T11:10:44.873Z,5.78
2018-05-23T11:13:15.179Z,5.72
2018-05-23T11:15:42.693Z,5.57
2018-05-23T11:18:10.186Z,5.20
2018-05-23T11:20:37.857Z,5.45
2018-05-23T11:23:05.463Z,5.12
2018-05-23T11:25:32.983Z,5.53
2018-05-23T11:28:00.450Z,4.40
2018-05-23T11:30:27.975Z,4.30
2018-05-23T11:32:55.480Z,4.25
2018-05-23T11:35:22.983Z,4.20
2018-05-23T11:37:50.503Z,6.68
2018-05-23T11:40:17.986Z,8.55
2018-05-23T11:42:45.482Z,4.57
2018-05-23T11:45:12.955Z,5.15
2018-05-23T11:47:40.501Z,4.57
2018-05-23T11:50:08.008Z,4.75
2018-05-23T11:52:35.626Z,3.33
2018-05-23T11:55:03.171Z,4.15
2018-05-23T11:57:30.730Z,3.95
2018-05-23T11:59:59.275Z,5.03
2018-05-23T12:02:26.768Z,4.15
2018-05-23T12:04:54.238Z,5.53
2018-05-23T12:07:21.873Z,4.57
2018-05-23T12:09:49.456Z,5.45
2018-05-23T12:12:16.955Z,4.60
2018-05-23T12:14:44.663Z,5.30
2018-05-23T12:17:12.206Z,4.57
2018-05-23T12:19:39.867Z,3.72
2018-05-23T12:22:07.355Z,4.18
2018-05-23T12:24:34.866Z,4.82
2018-05-23T12:27:03.410Z,4.68
2018-05-23T12:29:30.878Z,4.12
2018-05-23T12:31:58.385Z,6.35
2018-05-23T12:34:25.855Z,6.85
2018-05-23T12:36:53.351Z,4.10
2018-05-23T12:39:21.038Z,4.12
2018-05-23T12:41:48.690Z,3.55
2018-05-23T12:44:16.170Z,3.78
2018-05-23T12:46:43.742Z,6.10
2018-05-23T12:49:11.386Z,5.97
2018-05-23T12:51:38.946Z,3.40
2018-05-23T12:54:06.599Z,3.65
2018-05-23T12:56:34.091Z,3.87
2018-05-23T12:59:01.717Z,4.07
2018-05-23T13:01:29.211Z,4.53
2018-05-23T13:03:56.715Z,4.43
2018-05-23T13:06:24.239Z,4.18
2018-05-23T13:08:51.812Z,5.22
2018-05-23T13:11:19.343Z,3.35
2018-05-23T13:13:49.487Z,3.87
2018-05-23T13:16:17.331Z,6.22
2018-05-23T13:18:47.523Z,3.65
2018-05-23T13:21:17.354Z,4.07
2018-05-23T13:23:44.987Z,3.25
2018-05-23T13:26:12.476Z,3.37
2018-05-23T13:28:40.195Z,2.80
2018-05-23T13:31:07.769Z,2.80
2018-05-23T13:33:35.282Z,3.45
2018-05-23T13:36:02.751Z,4.50
2018-05-23T13:38:30.240Z,3.25
2018-05-23T13:40:57.703Z,2.97
2018-05-23T13:43:25.203Z,2.45
2018-05-23T13:45:52.667Z,4.03
2018-05-23T13:48:20.251Z,3.28
2018-05-23T13:50:47.807Z,2.78
2018-05-23T13:53:15.314Z,3.70
2018-05-23T13:55:43.058Z,2.62
2018-05-23T13:58:10.566Z,3.30
2018-05-23T14:00:38.027Z,3.00
2018-05-23T14:03:05.530Z,3.17
2018-05-23T14:05:33.058Z,4.18
2018-05-23T14:08:00.522Z,3.10
2018-05-23T14:10:28.220Z,3.33
2018-05-23T14:12:55.849Z,2.85
2018-05-23T14:15:23.431Z,2.78
2018-05-23T14:17:50.895Z,2.72
2018-05-23T14:20:18.436Z,2.80
2018-05-23T14:22:45.991Z,2.45
2018-05-23T14:25:13.474Z,2.33
2018-05-23T14:27:41.000Z,3.22
2018-05-23T14:30:08.486Z,2.53
2018-05-23T14:32:35.987Z,1.80
2018-05-23T14:35:03.496Z,1.80
2018-05-23T14:37:30.957Z,1.98
2018-05-23T14:39:58.447Z,2.12
2018-05-23T14:42:26.678Z,2.50
2018-05-23T14:44:54.227Z,2.00
2018-05-23T14:47:21.706Z,2.67
2018-05-23T14:49:49.259Z,1.83
2018-05-23T14:52:16.741Z,2.00
2018-05-23T14:54:44.302Z,1.50
2018-05-23T14:57:11.766Z,1.90
2018-05-23T14:59:39.323Z,2.72
2018-05-23T15:02:06.875Z,1.83
2018-05-23T15:04:34.375Z,1.65
2018-05-23T15:07:02.267Z,1.98
2018-05-23T15:09:29.877Z,1.17
2018-05-23T15:11:57.382Z,1.73
2018-05-23T15:14:25.002Z,1.75
2018-05-23T15:16:52.411Z,1.45
2018-05-23T15:19:19.908Z,3.17
2018-05-23T15:21:47.383Z,4.22
2018-05-23T15:24:14.870Z,3.67
2018-05-23T15:26:42.343Z,3.15
2018-05-23T15:29:09.814Z,3.17
2018-05-23T15:31:37.362Z,5.60
2018-05-23T15:34:04.827Z,9.75
2018-05-23T15:36:32.335Z,5.75
2018-05-23T15:39:00.722Z,4.97
2018-05-23T15:41:28.226Z,6.05
2018-05-23T15:43:55.690Z,5.72
2018-05-23T15:46:23.223Z,8.23
2018-05-23T15:48:50.687Z,7.28
2018-05-23T15:51:18.447Z,8.90
2018-05-23T15:53:45.903Z,7.03
2018-05-23T15:56:13.647Z,9.38
2018-05-23T15:58:41.130Z,8.48
2018-05-23T16:01:09.103Z,10.45
2018-05-23T16:03:36.575Z,7.62
2018-05-23T16:06:04.063Z,8.40
2018-05-23T16:08:31.563Z,8.32
2018-05-23T16:10:59.139Z,8.82
2018-05-23T16:13:26.690Z,8.38
2018-05-23T16:15:54.195Z,8.48
2018-05-23T16:18:21.681Z,8.38
2018-05-23T16:20:49.200Z,8.23
2018-05-23T16:23:16.724Z,7.78
2018-05-23T16:25:44.219Z,7.65
2018-05-23T16:28:11.707Z,9.00
2018-05-23T16:30:39.211Z,9.88
2018-05-23T16:33:06.759Z,8.30
2018-05-23T16:35:34.265Z,7.55
2018-05-23T16:38:01.791Z,7.97
2018-05-23T16:40:29.343Z,10.02
2018-05-23T16:42:56.893Z,8.02
2018-05-23T16:45:24.457Z,7.50
2018-05-23T16:47:56.653Z,8.98
2018-05-23T16:50:24.379Z,8.50
2018-05-23T16:52:51.984Z,8.27
2018-05-23T16:55:19.461Z,8.35
2018-05-23T16:57:46.998Z,7.55
2018-05-23T17:00:14.470Z,9.07
2018-05-23T17:02:41.954Z,8.45
2018-05-23T17:05:09.421Z,8.13
2018-05-23T17:07:36.917Z,8.18
2018-05-23T17:10:04.433Z,8.23
2018-05-23T17:12:32.016Z,6.87
2018-05-23T17:14:59.395Z,7.95
2018-05-23T17:17:27.240Z,7.78
2018-05-23T17:19:54.671Z,8.23
2018-05-23T17:22:22.154Z,7.10
2018-05-23T17:24:49.697Z,7.72
2018-05-23T17:27:17.298Z,7.72
2018-05-23T17:29:44.726Z,7.87
2018-05-23T17:32:12.213Z,8.35
2018-05-23T17:34:39.756Z,7.90
2018-05-23T17:37:07.525Z,8.65
2018-05-23T17:39:35.041Z,8.15
2018-05-23T17:42:02.535Z,8.25
2018-05-23T17:44:30.003Z,9.00
2018-05-23T17:46:57.495Z,9.32
2018-05-23T17:49:25.000Z,11.60
2018-05-23T17:51:52.491Z,9.55
2018-05-23T17:54:19.954Z,9.07
2018-05-23T17:56:47.490Z,10.27
2018-05-23T17:59:14.958Z,9.70
2018-05-23T18:01:42.422Z,8.65
2018-05-23T18:04:09.906Z,10.45
2018-05-23T18:06:37.383Z,10.13
2018-05-23T18:09:05.666Z,9.85
2018-05-23T18:11:33.121Z,9.98
2018-05-23T18:14:00.618Z,10.57
2018-05-23T18:16:28.089Z,9.95
2018-05-23T18:18:55.577Z,9.38
2018-05-23T18:21:23.054Z,11.45
2018-05-23T18:23:50.576Z,8.82
2018-05-23T18:26:18.137Z,8.43
2018-05-23T18:28:45.654Z,10.07
2018-05-23T18:31:13.129Z,8.70
2018-05-23T18:33:40.626Z,8.88
2018-05-23T18:36:08.097Z,9.82
2018-05-23T18:38:35.587Z,10.10
2018-05-23T18:41:03.049Z,8.75
2018-05-23T18:43:30.615Z,9.32
2018-05-23T18:45:58.034Z,9.00
2018-05-23T18:48:25.523Z,8.57
2018-05-23T18:50:56.822Z,8.57
2018-05-23T18:53:24.329Z,8.95
2018-05-23T18:55:51.789Z,9.57
2018-05-23T18:58:19.274Z,10.02
2018-05-23T19:00:46.739Z,10.65
2018-05-23T19:03:14.226Z,10.55
2018-05-23T19:05:41.758Z,11.05
2018-05-23T19:08:09.270Z,11.90
2018-05-23T19:10:36.738Z,10.63
2018-05-23T19:13:04.246Z,11.43
2018-05-23T19:15:31.754Z,11.70
2018-05-23T19:17:59.224Z,11.47
2018-05-23T19:20:30.394Z,12.20
2018-05-23T19:22:57.877Z,11.13
2018-05-23T19:25:25.378Z,13.13
2018-05-23T19:27:52.854Z,13.33
2018-05-23T19:30:20.509Z,11.80
2018-05-23T19:32:47.982Z,12.10
2018-05-23T19:35:15.484Z,12.77
2018-05-23T19:37:42.988Z,16.10
2018-05-23T19:40:10.508Z,16.30
2018-05-23T19:42:38.000Z,16.27
2018-05-23T19:45:05.497Z,15.70
2018-05-23T19:47:32.978Z,14.00
2018-05-23T19:50:00.478Z,13.20
2018-05-23T19:52:27.958Z,13.27
2018-05-23T19:54:55.462Z,13.23
2018-05-23T19:57:22.930Z,13.30
2018-05-23T19:59:50.501Z,13.33
2018-05-23T20:02:17.972Z,13.30
2018-05-23T20:04:45.498Z,13.53
2018-05-23T20:07:12.989Z,13.40
2018-05-23T20:09:40.480Z,12.90
2018-05-23T20:12:07.963Z,11.80
2018-05-23T20:14:35.458Z,12.47
2018-05-23T20:17:02.939Z,11.90
2018-05-23T20:19:30.454Z,11.63
2018-05-23T20:21:57.952Z,11.87
2018-05-23T20:24:25.552Z,12.80
2018-05-23T20:26:53.018Z,11.20
2018-05-23T20:29:20.613Z,12.30
2018-05-23T20:31:48.038Z,11.83
2018-05-23T20:34:15.517Z,12.50
2018-05-23T20:36:43.012Z,14.70
2018-05-23T20:39:12.760Z,12.10
2018-05-23T20:41:40.370Z,12.07
2018-05-23T20:44:07.942Z,12.23
2018-05-23T20:46:35.487Z,10.80
2018-05-23T20:49:02.983Z,12.17
2018-05-23T20:51:30.494Z,11.27
2018-05-23T20:53:57.979Z,11.83
2018-05-23T20:56:25.482Z,11.37
2018-05-23T20:58:53.023Z,10.30
2018-05-23T21:01:20.523Z,13.27
2018-05-23T21:03:48.059Z,10.80
2018-05-23T21:06:15.583Z,11.10
2018-05-23T21:08:43.161Z,10.90
2018-05-23T21:11:10.654Z,10.60
2018-05-23T21:13:38.212Z,11.87
2018-05-23T21:16:05.707Z,13.97
2018-05-23T21:18:33.191Z,11.27
2018-05-23T21:21:00.690Z,11.37
2018-05-23T21:23:28.162Z,11.07
2018-05-23T21:25:55.694Z,9.80
2018-05-23T21:28:23.175Z,11.20
2018-05-23T21:30:50.698Z,11.43
2018-05-23T21:33:18.162Z,10.37
2018-05-23T21:35:45.683Z,11.03
2018-05-23T21:38:13.206Z,12.00
2018-05-23T21:40:40.794Z,11.53
2018-05-23T21:43:08.265Z,12.50
2018-05-23T21:45:35.766Z,12.07
2018-05-23T21:48:03.303Z,10.60
2018-05-23T21:50:30.770Z,11.13
2018-05-23T21:52:58.282Z,10.10
2018-05-23T21:55:25.839Z,11.63
2018-05-23T21:57:53.355Z,11.67
2018-05-23T22:00:20.847Z,12.17
2018-05-23T22:02:48.340Z,12.50
2018-05-23T22:05:15.810Z,13.40
2018-05-23T22:07:43.294Z,11.87
2018-05-23T22:10:10.770Z,11.67
2018-05-23T22:12:38.394Z,10.80
2018-05-23T22:15:05.918Z,11.13
2018-05-23T22:17:33.403Z,11.73
2018-05-23T22:20:00.882Z,11.37
2018-05-23T22:22:28.446Z,11.50
2018-05-23T22:24:55.890Z,11.83
2018-05-23T22:27:23.377Z,11.07
2018-05-23T22:29:51.030Z,10.63
2018-05-23T22:32:18.520Z,14.03
2018-05-23T22:34:46.034Z,12.00
2018-05-23T22:37:13.517Z,13.10
2018-05-23T22:39:40.986Z,12.13
2018-05-23T22:42:08.486Z,12.00
2018-05-23T22:44:35.959Z,11.97
2018-05-23T22:47:03.451Z,13.13
2018-05-23T22:49:30.998Z,12.30
2018-05-23T22:51:58.493Z,12.83
2018-05-23T22:54:26.036Z,13.60
2018-05-23T22:56:53.584Z,13.20
2018-05-23T22:59:21.079Z,12.00
2018-05-23T23:01:48.574Z,12.37
2018-05-23T23:04:16.063Z,11.93
2018-05-23T23:06:43.611Z,12.60
2018-05-23T23:09:11.115Z,13.43
2018-05-23T23:11:38.622Z,13.80
2018-05-23T23:14:06.190Z,12.57
2018-05-23T23:16:33.747Z,13.57
2018-05-23T23:19:01.322Z,13.97
2018-05-23T23:21:28.791Z,12.83
2018-05-23T23:23:56.331Z,14.37
2018-05-23T23:26:23.887Z,12.70
2018-05-23T23:28:51.402Z,14.27
2018-05-23T23:31:18.878Z,11.93
2018-05-23T23:33:46.374Z,11.53
2018-05-23T23:36:13.898Z,12.33
2018-05-23T23:38:41.387Z,12.50
2018-05-23T23:41:08.957Z,12.97
2018-05-23T23:43:36.452Z,12.53
2018-05-23T23:46:03.932Z,12.95
2018-05-23T23:48:31.427Z,13.00
2018-05-23T23:50:58.894Z,12.53
2018-05-23T23:53:26.429Z,12.73
2018-05-23T23:55:53.894Z,12.47
2018-05-23T23:58:21.362Z,12.83
